Time;durP1;ratioP1;P1;durP2;ratioP2;P2;SDS_P1;SDS_P2;PMS_P1;PMS_P2;Temp;Humidity;BMP_temperature;BMP_pressure;BME280_temperature;BME280_humidity;BME280_pressure;Samples;Min_cycle;Max_cycle;Signal;HPM_P1;HPM_P2
2023/07/29 00:02:05;;;;;;;;;8.00;8.00;;;;;23.78;67.48;100065.66;5040072;28;46176;-74
2023/07/29 00:04:31;;;;;;;;;8.00;7.00;;;;;23.77;67.81;100071.00;5039543;28;45374;-74
2023/07/29 00:06:57;;;;;;;;;7.33;7.00;;;;;23.76;67.31;100058.63;5039224;28;45350;-74
2023/07/29 00:09:22;;;;;;;;;8.67;7.67;;;;;23.83;67.13;100073.50;5039358;28;45530;-74
2023/07/29 00:11:48;;;;;;;;;6.67;5.67;;;;;23.71;68.21;100074.75;5039592;28;45422;-74
2023/07/29 00:14:14;;;;;;;;;8.00;8.00;;;;;23.72;67.54;100076.50;5038210;28;45488;-74
2023/07/29 00:16:39;;;;;;;;;9.00;7.33;;;;;23.60;67.89;100072.44;5037816;28;46274;-74
2023/07/29 00:19:05;;;;;;;;;6.00;6.00;;;;;23.44;67.12;100060.50;5039409;28;45533;-74
2023/07/29 00:21:31;;;;;;;;;6.33;6.33;;;;;23.35;67.73;100055.44;5039192;28;45481;-74
2023/07/29 00:24:01;;;;;;;;;6.33;6.00;;;;;23.38;67.55;100056.22;5039458;28;45218;-73
2023/07/29 00:26:28;;;;;;;;;7.33;6.33;;;;;23.40;67.07;100058.84;5039026;28;45592;-74
2023/07/29 00:28:58;;;;;;;;;7.00;6.00;;;;;23.32;67.65;100044.91;5037383;28;45665;-75
2023/07/29 00:31:23;;;;;;;;;7.00;7.00;;;;;23.44;67.03;100055.16;5039155;28;45533;-75
2023/07/29 00:33:49;;;;;;;;;8.00;7.00;;;;;23.30;67.76;100044.03;5039150;28;45453;-74
2023/07/29 00:36:15;;;;;;;;;8.33;7.00;;;;;23.20;68.19;100055.00;5037233;28;47574;-75
2023/07/29 00:38:41;;;;;;;;;7.00;7.00;;;;;23.11;69.00;100049.94;5038941;28;45417;-75
2023/07/29 00:41:07;;;;;;;;;10.00;9.00;;;;;22.98;68.71;100036.06;5038939;28;45413;-75
2023/07/29 00:43:33;;;;;;;;;7.33;7.33;;;;;22.98;68.41;100029.88;5039258;28;45357;-75
2023/07/29 00:46:00;;;;;;;;;10.00;9.00;;;;;23.13;68.75;100050.75;5038743;28;46081;-75
2023/07/29 00:48:26;;;;;;;;;7.67;7.00;;;;;23.03;68.49;100051.94;5038598;28;45707;-74
2023/07/29 00:50:52;;;;;;;;;11.33;8.33;;;;;22.97;68.49;100033.44;5038693;28;45503;-75
2023/07/29 00:53:18;;;;;;;;;9.00;6.67;;;;;23.08;68.09;100047.38;5039292;28;45323;-75
2023/07/29 00:55:43;;;;;;;;;7.67;7.00;;;;;23.02;67.68;100028.91;5038533;28;46146;-75
2023/07/29 00:58:10;;;;;;;;;7.00;7.00;;;;;23.06;67.81;100041.22;5038604;28;45273;-74
2023/07/29 01:00:36;;;;;;;;;11.00;7.33;;;;;22.92;68.34;100032.69;5038677;28;45497;-75
2023/07/29 01:03:02;;;;;;;;;8.67;7.67;;;;;22.98;67.81;100048.53;5038825;28;45517;-74
2023/07/29 01:05:36;;;;;;;;;6.67;6.00;;;;;22.92;68.06;100038.03;5038573;28;46119;-74
2023/07/29 01:08:20;;;;;;;;;8.00;7.00;;;;;22.98;67.49;100049.41;5038659;28;45369;-74
2023/07/29 01:11:03;;;;;;;;;6.67;6.00;;;;;22.80;67.63;100037.47;5038210;28;45440;-74
2023/07/29 01:13:47;;;;;;;;;7.00;7.00;;;;;22.82;68.01;100043.63;5037002;28;45258;-74
2023/07/29 01:16:23;;;;;;;;;6.67;6.00;;;;;22.79;67.84;100046.38;5036252;28;46871;-74
2023/07/29 01:18:52;;;;;;;;;8.00;8.00;;;;;22.77;67.30;100032.22;5038725;28;45326;-74
2023/07/29 01:21:21;;;;;;;;;6.67;6.67;;;;;22.78;67.85;100028.66;5037350;28;45360;-74
2023/07/29 01:23:46;;;;;;;;;9.00;7.00;;;;;22.76;67.92;100041.16;5038253;28;45547;-74
2023/07/29 01:26:12;;;;;;;;;7.33;6.00;;;;;22.76;67.67;100038.50;5037928;28;45719;-74
2023/07/29 01:28:38;;;;;;;;;6.00;6.00;;;;;22.72;67.59;100031.50;5037995;28;45478;-74
2023/07/29 01:31:12;;;;;;;;;8.00;5.67;;;;;22.69;67.76;100034.25;5038368;28;45520;-74
2023/07/29 01:33:56;;;;;;;;;8.00;6.33;;;;;22.71;67.34;100035.06;5038395;28;45209;-73
2023/07/29 01:36:26;;;;;;;;;6.00;6.00;;;;;22.43;67.44;99979.94;5036604;28;48163;-73
2023/07/29 01:38:54;;;;;;;;;7.00;6.33;;;;;22.67;67.21;100024.56;5038156;28;45502;-73
2023/07/29 01:41:21;;;;;;;;;5.00;5.00;;;;;22.60;67.09;100010.53;5038129;28;45694;-73
2023/07/29 01:43:47;;;;;;;;;5.00;5.00;;;;;22.64;66.94;100014.84;5038038;28;45580;-73
2023/07/29 01:46:16;;;;;;;;;7.33;7.00;;;;;22.51;67.51;100003.69;5036231;28;46530;-73
2023/07/29 01:48:42;;;;;;;;;6.00;6.00;;;;;22.58;67.65;100018.59;5037664;28;45369;-73
2023/07/29 01:51:09;;;;;;;;;7.00;6.33;;;;;22.55;67.27;100010.66;5037826;28;45379;-74
2023/07/29 01:53:34;;;;;;;;;5.33;5.33;;;;;22.38;67.31;99996.94;5038072;28;45605;-73
2023/07/29 01:56:01;;;;;;;;;8.33;8.00;;;;;22.21;68.72;99978.75;5037537;28;45667;-73
2023/07/29 01:58:27;;;;;;;;;6.33;5.00;;;;;22.28;68.38;99991.00;5037789;28;45438;-73
2023/07/29 02:00:52;;;;;;;;;6.00;6.00;;;;;22.30;67.96;99990.97;5036688;28;45356;-73
2023/07/29 02:03:18;;;;;;;;;7.00;6.67;;;;;22.25;68.05;99977.78;5037918;28;45426;-73
2023/07/29 02:05:43;;;;;;;;;6.00;5.33;;;;;22.21;68.09;99968.13;5037465;28;46264;-74
2023/07/29 02:08:10;;;;;;;;;6.67;6.00;;;;;22.28;68.75;99984.81;5037459;28;45344;-73
2023/07/29 02:10:35;;;;;;;;;8.00;7.00;;;;;22.14;68.69;99972.72;5037671;28;45407;-73
2023/07/29 02:13:01;;;;;;;;;7.00;6.67;;;;;22.09;70.61;99984.41;5037555;28;45302;-74
2023/07/29 02:15:28;;;;;;;;;7.33;7.00;;;;;21.94;70.41;99991.00;5037142;28;46049;-73
2023/07/29 02:17:53;;;;;;;;;7.33;6.33;;;;;21.82;70.14;99994.84;5037610;28;45376;-73
2023/07/29 02:24:36;;;;;;;;;9.00;7.67;;;;;21.71;70.63;99991.59;5037685;28;45487;-73
2023/07/29 02:27:02;;;;;;;;;13.00;11.67;;;;;21.74;70.60;99988.84;5034172;28;46834;-73
2023/07/29 02:29:27;;;;;;;;;7.00;7.00;;;;;21.75;70.58;99987.94;5037120;28;45270;-73
2023/07/29 02:31:53;;;;;;;;;10.00;8.00;;;;;21.74;70.77;99979.06;5037325;28;45503;-73
2023/07/29 02:34:19;;;;;;;;;6.33;5.33;;;;;21.80;71.02;99983.34;5037349;28;45456;-73
2023/07/29 02:36:45;;;;;;;;;6.67;6.00;;;;;21.84;70.50;99985.03;5037069;28;46015;-73
2023/07/29 02:39:11;;;;;;;;;6.33;5.00;;;;;21.83;71.10;99959.38;5037164;28;45450;-73
2023/07/29 02:41:36;;;;;;;;;6.33;6.00;;;;;21.95;70.57;99977.66;5037386;28;45451;-73
2023/07/29 02:44:03;;;;;;;;;8.00;7.00;;;;;22.03;70.00;99981.00;5037353;28;45446;-73
2023/07/29 02:46:28;;;;;;;;;6.33;6.33;;;;;22.17;68.94;99985.94;5036980;28;45505;-73
2023/07/29 02:48:54;;;;;;;;;7.00;7.00;;;;;22.21;68.65;99978.75;5036842;28;45508;-73
2023/07/29 02:51:20;;;;;;;;;6.00;5.67;;;;;22.13;68.86;99959.47;5036999;28;45216;-73
2023/07/29 02:53:46;;;;;;;;;9.00;7.00;;;;;22.16;68.73;99965.59;5037180;28;45261;-73
2023/07/29 02:56:11;;;;;;;;;5.00;5.00;;;;;22.05;68.16;99936.59;5036841;28;46317;-73
2023/07/29 02:58:37;;;;;;;;;7.00;7.00;;;;;22.20;68.23;99966.34;5035755;28;45511;-73
2023/07/29 03:01:04;;;;;;;;;7.00;5.67;;;;;22.12;68.31;99958.56;5036969;28;45537;-73
2023/07/29 03:03:31;;;;;;;;;6.00;6.00;;;;;22.08;68.73;99962.22;5036740;28;45447;-73
2023/07/29 03:05:59;;;;;;;;;6.00;5.00;;;;;21.96;68.58;99974.06;5035071;28;45495;-73
2023/07/29 03:08:25;;;;;;;;;9.00;6.00;;;;;21.92;68.66;99966.22;5036702;28;45473;-72
2023/07/29 03:10:51;;;;;;;;;5.67;5.00;;;;;21.85;69.04;99960.19;5036738;28;45447;-73
2023/07/29 03:13:16;;;;;;;;;5.00;4.67;;;;;21.95;69.03;99971.47;5035736;28;45288;-73
2023/07/29 03:15:42;;;;;;;;;7.33;5.67;;;;;21.96;68.46;99968.75;5036575;28;45208;-74
2023/07/29 03:18:08;;;;;;;;;6.67;5.00;;;;;21.98;68.58;99966.94;5036951;28;45488;-73
2023/07/29 03:20:33;;;;;;;;;7.33;5.67;;;;;21.96;67.94;99976.72;5036516;28;45529;-73
2023/07/29 03:22:59;;;;;;;;;5.00;4.67;;;;;21.85;68.04;99966.38;5036973;28;45238;-73
2023/07/29 03:25:24;;;;;;;;;6.00;5.67;;;;;21.81;68.26;99964.72;5036641;28;46238;-73
2023/07/29 03:27:50;;;;;;;;;6.67;6.33;;;;;;;;5036546;28;45432;-73
2023/07/29 03:30:20;;;;;;;;;5.67;5.00;;;;;21.74;68.02;99965.78;5036652;28;45489;-73
2023/07/29 03:32:46;;;;;;;;;6.33;6.00;;;;;21.73;68.08;99965.84;5036698;28;45458;-73
2023/07/29 03:35:11;;;;;;;;;5.33;5.33;;;;;21.74;68.39;99956.94;5034553;28;46158;-73
2023/07/29 03:37:37;;;;;;;;;7.00;6.00;;;;;21.58;69.00;99943.16;5036826;28;45279;-73
2023/07/29 03:40:03;;;;;;;;;6.00;5.67;;;;;21.56;68.91;99953.81;5038546;28;45426;-73
2023/07/29 03:42:29;;;;;;;;;6.00;6.00;;;;;21.59;69.06;99950.22;5038876;28;45668;-73
2023/07/29 03:44:55;;;;;;;;;7.33;6.33;;;;;21.67;68.82;99952.69;5039583;28;45497;-73
2023/07/29 03:47:20;;;;;;;;;5.00;5.00;;;;;21.72;68.86;99956.09;5039767;28;45411;-73
2023/07/29 03:49:46;;;;;;;;;6.67;6.00;;;;;21.77;68.49;99959.53;5039980;28;45509;-73
2023/07/29 03:52:12;;;;;;;;;5.67;5.00;;;;;21.78;68.26;99958.59;5040039;28;45378;-74
2023/07/29 03:54:37;;;;;;;;;7.33;7.33;;;;;21.73;68.76;99955.19;5039850;28;45997;-74
2023/07/29 03:57:03;;;;;;;;;7.00;7.00;;;;;21.62;68.68;99947.47;5039634;28;45304;-74
2023/07/29 03:59:29;;;;;;;;;6.33;6.00;;;;;21.62;69.00;99942.16;5039503;28;45602;-74
2023/07/29 04:01:54;;;;;;;;;6.67;6.00;;;;;21.58;68.39;99935.19;5039772;28;45561;-75
2023/07/29 04:04:20;;;;;;;;;7.00;6.00;;;;;21.72;68.14;99942.81;5039255;28;45938;-74
2023/07/29 04:06:46;;;;;;;;;5.33;5.33;;;;;21.72;68.49;99943.66;5039317;28;45545;-74
2023/07/29 04:09:11;;;;;;;;;7.00;6.00;;;;;;;;5039930;28;45408;-74
2023/07/29 04:11:37;;;;;;;;;6.00;6.00;;;;;21.71;68.85;99949.91;5039748;28;45391;-74
2023/07/29 04:14:02;;;;;;;;;6.33;5.33;;;;;21.74;68.66;99946.31;5039526;28;45855;-74
2023/07/29 04:16:28;;;;;;;;;6.00;5.00;;;;;21.73;68.40;99950.75;5039198;28;45421;-74
2023/07/29 04:18:54;;;;;;;;;6.33;6.33;;;;;21.71;68.01;99943.75;5039223;28;45182;-74
2023/07/29 04:21:20;;;;;;;;;7.00;6.00;;;;;21.78;67.86;99950.63;5039542;28;45294;-74
2023/07/29 04:23:45;;;;;;;;;12.00;11.00;;;;;21.62;68.59;99955.44;5037721;28;46212;-74
2023/07/29 04:26:11;;;;;;;;;7.33;7.33;;;;;21.59;68.43;99948.44;5039407;28;45303;-73
2023/07/29 04:28:37;;;;;;;;;5.00;5.00;;;;;21.56;68.65;99944.97;5039292;28;45445;-74
2023/07/29 04:31:02;;;;;;;;;5.33;5.00;;;;;21.50;68.75;99945.13;5038001;28;45481;-74
2023/07/29 04:33:30;;;;;;;;;6.00;6.00;;;;;21.55;68.88;99954.75;5038814;28;46048;-74
2023/07/29 04:35:56;;;;;;;;;8.33;7.67;;;;;21.47;68.90;99954.06;5038911;28;45461;-74
2023/07/29 04:38:22;;;;;;;;;3.00;2.00;;;;;21.36;69.52;99958.72;5038988;28;45338;-74
2023/07/29 04:40:51;;;;;;;;;6.33;6.00;;;;;21.43;68.89;99969.19;5037818;28;45505;-74
2023/07/29 04:43:16;;;;;;;;;6.33;5.00;;;;;21.31;69.37;99934.94;5037341;28;46768;-75
2023/07/29 04:45:45;;;;;;;;;5.67;5.67;;;;;21.36;68.93;99938.31;5038701;28;45240;-74
2023/07/29 04:48:11;;;;;;;;;5.33;5.00;;;;;21.41;69.01;99948.88;5039321;28;45316;-74
2023/07/29 04:50:37;;;;;;;;;7.67;6.67;;;;;21.36;69.00;99951.59;5038054;28;45415;-74
2023/07/29 04:53:02;;;;;;;;;6.00;5.33;;;;;21.42;69.12;99953.25;5038599;28;45901;-74
2023/07/29 04:55:28;;;;;;;;;5.00;5.00;;;;;21.49;68.90;99957.56;5038519;28;45466;-74
2023/07/29 04:57:54;;;;;;;;;8.67;7.00;;;;;21.50;68.46;99964.59;5038775;28;45274;-74
2023/07/29 05:00:19;;;;;;;;;7.33;6.00;;;;;21.50;68.56;99956.63;5038887;28;45493;-74
2023/07/29 05:02:45;;;;;;;;;7.33;6.00;;;;;21.48;69.23;99955.78;5038903;28;46145;-74
2023/07/29 05:05:11;;;;;;;;;6.00;4.67;;;;;21.44;68.81;99951.47;5038953;28;45484;-74
2023/07/29 05:07:37;;;;;;;;;6.67;6.00;;;;;21.43;68.96;99957.69;5038589;28;46197;-74
2023/07/29 05:10:02;;;;;;;;;6.67;6.67;;;;;21.49;68.71;99962.88;5038627;28;45510;-74
2023/07/29 05:12:29;;;;;;;;;6.33;6.00;;;;;21.52;68.63;99965.44;5038322;28;45474;-73
2023/07/29 05:14:55;;;;;;;;;7.00;5.67;;;;;21.56;68.61;99958.25;5036970;28;45543;-74
2023/07/29 05:17:21;;;;;;;;;6.00;6.00;;;;;21.55;68.72;99961.84;5038445;28;45415;-74
2023/07/29 05:19:47;;;;;;;;;6.33;6.33;;;;;21.32;68.83;99951.72;5038596;28;45353;-73
2023/07/29 05:22:12;;;;;;;;;6.67;6.00;;;;;21.39;68.35;99970.16;5038319;28;45264;-74
2023/07/29 05:24:38;;;;;;;;;7.00;7.00;;;;;21.43;68.76;99969.19;5038210;28;45225;-74
2023/07/29 05:27:04;;;;;;;;;7.00;7.00;;;;;21.39;68.32;99966.63;5037029;28;45255;-73
2023/07/29 05:29:30;;;;;;;;;5.00;5.00;;;;;21.39;69.09;99967.50;5038450;28;45307;-74
2023/07/29 05:31:56;;;;;;;;;9.33;5.67;;;;;21.44;69.25;99965.63;5036715;28;46972;-73
2023/07/29 05:34:22;;;;;;;;;7.00;6.00;;;;;21.50;68.57;99950.44;5036977;28;45450;-75
2023/07/29 05:36:48;;;;;;;;;7.00;6.00;;;;;21.63;68.79;99958.06;5038088;28;45381;-74
2023/07/29 05:39:13;;;;;;;;;9.33;7.00;;;;;21.73;68.32;99955.19;5038659;28;45371;-74
2023/07/29 05:41:39;;;;;;;;;6.67;6.00;;;;;21.73;68.23;99944.56;5038034;28;45834;-75
2023/07/29 05:44:05;;;;;;;;;6.00;6.00;;;;;21.85;67.65;99954.88;5037988;28;45353;-74
2023/07/29 05:46:30;;;;;;;;;6.00;6.00;;;;;21.86;67.43;99943.31;5036748;28;45538;-74
2023/07/29 05:48:56;;;;;;;;;10.67;9.33;;;;;21.92;67.43;99951.13;5038218;28;45237;-74
2023/07/29 05:51:22;;;;;;;;;8.00;6.00;;;;;21.96;67.45;99946.63;5037692;28;46518;-74
2023/07/29 05:53:48;;;;;;;;;8.33;8.00;;;;;21.92;67.71;99940.50;5038168;28;45446;-74
2023/07/29 05:56:13;;;;;;;;;6.67;6.00;;;;;21.90;68.24;99929.03;5037848;28;45581;-73
2023/07/29 05:58:39;;;;;;;;;7.00;7.00;;;;;21.98;68.51;99945.66;5037749;28;45486;-74
2023/07/29 06:01:04;;;;;;;;;6.00;5.67;;;;;21.87;68.20;99926.47;5037541;28;46145;-74
2023/07/29 06:03:30;;;;;;;;;7.00;6.00;;;;;21.93;67.77;99928.97;5037809;28;45154;-73
2023/07/29 06:05:56;;;;;;;;;6.67;6.33;;;;;22.02;68.32;99938.47;5036311;28;45459;-74
2023/07/29 06:08:21;;;;;;;;;9.00;8.00;;;;;21.98;68.10;99928.81;5037688;28;45402;-74
2023/07/29 06:10:47;;;;;;;;;8.33;8.00;;;;;21.96;68.72;99934.19;5036267;28;46158;-74
2023/07/29 06:13:13;;;;;;;;;8.00;7.67;;;;;22.01;68.53;99942.06;5037278;28;45381;-73
2023/07/29 06:15:40;;;;;;;;;11.00;7.67;;;;;22.09;68.25;99947.19;5037230;28;45391;-74
2023/07/29 06:18:05;;;;;;;;;8.67;6.67;;;;;22.18;68.64;99944.25;5037766;28;45248;-74
2023/07/29 06:20:31;;;;;;;;;8.00;7.33;;;;;24.12;63.82;99948.94;5035663;28;45898;-73
2023/07/29 06:22:57;;;;;;;;;10.33;9.00;;;;;26.83;56.28;99954.88;5036379;28;45382;-73
2023/07/29 06:25:23;;;;;;;;;9.67;9.00;;;;;28.75;51.86;99955.97;5035964;28;45366;-74
2023/07/29 06:27:49;;;;;;;;;9.33;8.00;;;;;30.23;50.09;99952.00;5036818;28;45423;-72
2023/07/29 06:30:15;;;;;;;;;10.00;9.00;;;;;31.40;44.88;99956.28;5036454;28;45464;-73
2023/07/29 06:32:41;;;;;;;;;7.33;6.67;;;;;32.19;44.61;99960.00;5036023;28;45462;-74
2023/07/29 06:35:07;;;;;;;;;8.33;8.33;;;;;33.06;42.33;99963.72;5036328;28;45385;-74
2023/07/29 06:37:33;;;;;;;;;9.33;8.33;;;;;33.76;40.34;99961.34;5036648;28;45425;-74
2023/07/29 06:39:59;;;;;;;;;8.67;8.33;;;;;34.56;39.60;99971.41;5036174;28;45496;-73
2023/07/29 06:42:25;;;;;;;;;7.00;6.33;;;;;35.52;37.43;99979.00;5036076;28;45311;-74
2023/07/29 06:44:50;;;;;;;;;9.00;7.67;;;;;36.41;35.42;99981.44;5036686;28;45470;-74
2023/07/29 06:47:16;;;;;;;;;8.00;8.00;;;;;36.96;34.53;99987.47;5035472;28;45437;-74
2023/07/29 06:49:42;;;;;;;;;7.00;6.67;;;;;37.48;34.16;99995.50;5035882;28;45704;-75
2023/07/29 06:52:08;;;;;;;;;7.67;7.00;;;;;38.08;34.04;99987.28;5034416;28;45462;-75
2023/07/29 06:54:33;;;;;;;;;5.50;5.00;;;;;38.79;33.12;99994.16;5034815;28;45323;-75
2023/07/29 06:56:59;;;;;;;;;5.33;5.33;;;;;39.24;31.79;99987.06;5036195;28;45273;-74
2023/07/29 06:59:25;;;;;;;;;7.00;7.00;;;;;39.98;30.16;99991.44;5035922;28;45277;-75
2023/07/29 07:01:51;;;;;;;;;7.00;7.00;;;;;40.65;30.06;100007.31;5036282;28;45576;-75
2023/07/29 07:04:17;;;;;;;;;5.33;5.33;;;;;41.09;29.88;100018.22;5035756;28;45517;-75
2023/07/29 07:06:42;;;;;;;;;6.33;6.33;;;;;41.50;27.90;100023.84;5039083;28;45584;-74
2023/07/29 07:09:08;;;;;;;;;4.67;4.33;;;;;42.01;27.67;100021.88;5039934;28;46300;-75
2023/07/29 07:11:34;;;;;;;;;6.00;5.33;;;;;42.28;26.48;100026.22;5035732;28;45465;-74
2023/07/29 07:14:00;;;;;;;;;6.00;6.00;;;;;42.61;26.85;100020.69;5037871;28;45264;-75
2023/07/29 07:16:30;;;;;;;;;6.67;6.67;;;;;42.94;26.16;100042.63;5039890;28;45324;-74
2023/07/29 07:18:57;;;;;;;;;8.00;8.00;;;;;43.35;25.77;100042.44;5038066;28;46523;-75
2023/07/29 07:21:23;;;;;;;;;7.00;6.00;;;;;43.65;25.11;100050.88;5044252;28;45430;-77
2023/07/29 07:23:51;;;;;;;;;5.33;5.33;;;;;44.06;24.85;100054.22;5038357;28;45862;-76
2023/07/29 07:26:19;;;;;;;;;6.67;6.67;;;;;44.38;25.54;100046.75;5039449;28;45457;-76
2023/07/29 07:28:45;;;;;;;;;6.00;6.00;;;;;44.05;23.86;100047.00;5039127;28;46657;-76
2023/07/29 07:31:11;;;;;;;;;5.00;4.00;;;;;44.25;24.07;100052.91;5038987;28;45380;-76
2023/07/29 07:33:36;;;;;;;;;7.00;7.00;;;;;44.53;23.70;100056.94;5039263;28;45483;-75
2023/07/29 07:36:02;;;;;;;;;5.00;4.67;;;;;45.02;23.55;100061.97;5039248;28;45523;-75
2023/07/29 07:38:28;;;;;;;;;5.00;4.67;;;;;45.39;23.23;100060.16;5039191;28;46125;-75
2023/07/29 07:40:55;;;;;;;;;5.33;4.67;;;;;45.87;22.38;100068.78;5037211;28;45558;-77
2023/07/29 07:43:21;;;;;;;;;6.00;6.00;;;;;45.40;22.91;100061.84;5039278;28;45626;-77
2023/07/29 07:45:47;;;;;;;;;6.00;6.00;;;;;44.99;23.32;100065.97;5038939;28;45498;-76
2023/07/29 07:48:13;;;;;;;;;5.33;5.33;;;;;45.35;24.43;100075.38;5038825;28;45886;-77
2023/07/29 07:50:39;;;;;;;;;6.67;6.00;;;;;46.21;23.30;100068.06;5037542;28;45442;-76
2023/07/29 07:53:05;;;;;;;;;5.00;5.00;;;;;46.97;23.12;100069.31;5038982;28;45380;-75
2023/07/29 07:55:31;;;;;;;;;5.67;4.33;;;;;47.72;22.00;100073.09;5038889;28;45493;-75
2023/07/29 07:57:56;;;;;;;;;5.00;4.00;;;;;47.71;21.02;100076.91;5038364;28;45900;-73
2023/07/29 08:00:22;;;;;;;;;4.33;4.33;;;;;47.39;21.46;100068.25;5037354;28;45515;-73
2023/07/29 08:02:48;;;;;;;;;5.00;4.67;;;;;47.09;22.13;100073.22;5036871;28;45482;-73
2023/07/29 08:05:13;;;;;;;;;5.33;5.00;;;;;47.20;21.18;100072.66;5038147;28;45323;-73
2023/07/29 08:07:39;;;;;;;;;5.67;5.67;;;;;47.21;21.83;100068.81;5036104;28;45545;-73
2023/07/29 08:10:06;;;;;;;;;7.33;7.33;;;;;46.99;22.20;100072.72;5037761;28;45615;-72
2023/07/29 08:12:32;;;;;;;;;6.67;5.67;;;;;47.20;21.33;100067.13;5038638;28;45264;-74
2023/07/29 08:14:58;;;;;;;;;5.00;5.00;;;;;47.41;21.48;100076.34;5038724;28;45485;-74
2023/07/29 08:17:23;;;;;;;;;5.33;5.33;;;;;47.41;21.61;100070.81;5038337;28;46023;-75
2023/07/29 08:19:49;;;;;;;;;5.00;5.00;;;;;48.18;22.29;100090.88;5038069;28;46234;-74
2023/07/29 08:22:16;;;;;;;;;4.00;4.00;;;;;48.22;21.62;100078.31;5036697;28;45547;-73
2023/07/29 08:24:43;;;;;;;;;5.00;5.00;;;;;48.22;21.17;100088.53;5036916;28;45562;-73
2023/07/29 08:27:08;;;;;;;;;6.67;6.00;;;;;48.30;20.22;100086.44;5037901;28;45483;-74
2023/07/29 08:29:34;;;;;;;;;6.00;6.00;;;;;47.39;21.27;100078.47;5036777;28;45654;-76
2023/07/29 08:32:00;;;;;;;;;3.00;2.67;;;;;47.40;20.80;100085.75;5038206;28;45395;-76
2023/07/29 08:34:25;;;;;;;;;5.67;5.00;;;;;47.31;22.14;100079.50;5038159;28;45417;-76
2023/07/29 08:36:51;;;;;;;;;5.00;5.00;;;;;46.66;22.19;100084.41;5037656;28;45864;-76
2023/07/29 08:39:17;;;;;;;;;5.67;5.67;;;;;46.74;21.69;100083.38;5037513;28;45488;-77
2023/07/29 08:42:04;;;;;;;;;5.00;4.67;;;;;47.29;21.67;100078.03;5037562;28;45312;-73
2023/07/29 08:44:36;;;;;;;;;5.00;4.67;;;;;48.27;20.87;100094.28;5018549;28;45298;-76
2023/07/29 08:47:03;;;;;;;;;4.67;4.33;;;;;48.74;20.92;100092.41;5018198;28;45440;-75
2023/07/29 08:49:31;;;;;;;;;7.00;6.00;;;;;48.90;20.86;100080.00;5033159;28;45712;-76
2023/07/29 08:52:00;;;;;;;;;4.00;3.67;;;;;49.13;19.52;100083.16;5038714;28;45594;-76
2023/07/29 08:54:26;;;;;;;;;4.00;4.00;;;;;49.18;19.48;100088.03;5038885;28;45500;-75
2023/07/29 08:56:52;;;;;;;;;6.00;6.00;;;;;49.34;20.09;100083.94;5036514;28;46904;-75
2023/07/29 08:59:19;;;;;;;;;4.00;4.00;;;;;49.12;20.32;100089.78;5038346;28;45438;-75
2023/07/29 09:01:46;;;;;;;;;6.33;5.33;;;;;49.36;20.81;100101.22;5038040;28;45465;-77
2023/07/29 09:04:12;;;;;;;;;4.00;4.00;;;;;49.55;19.74;100091.13;5037581;28;45528;-75
2023/07/29 09:06:39;;;;;;;;;5.33;5.33;;;;;49.73;19.50;100101.53;5037295;28;45902;-75
2023/07/29 09:09:07;;;;;;;;;5.00;5.00;;;;;49.37;19.23;100091.84;5037031;28;45459;-75
2023/07/29 09:11:33;;;;;;;;;7.33;7.00;;;;;48.59;20.11;100096.22;5036087;28;45481;-75
2023/07/29 09:13:59;;;;;;;;;5.00;5.00;;;;;48.43;20.82;100079.19;5036527;28;45370;-75
2023/07/29 09:16:25;;;;;;;;;4.67;4.67;;;;;48.19;20.89;100096.22;5037972;28;45483;-76
2023/07/29 09:18:52;;;;;;;;;6.67;6.00;;;;;48.13;20.10;100097.06;5036662;28;45359;-77
2023/07/29 09:21:23;;;;;;;;;5.67;5.00;;;;;48.12;20.87;100103.66;5037960;28;45417;-77
2023/07/29 09:23:50;;;;;;;;;7.33;7.33;;;;;48.18;20.17;100101.97;5038109;28;45326;-76
2023/07/29 09:26:25;;;;;;;;;7.00;7.00;;;;;47.52;21.06;100091.53;5036359;28;45344;-78
2023/07/29 09:28:58;;;;;;;;;7.33;6.67;;;;;48.11;20.85;100087.25;5037662;28;45925;-78
2023/07/29 09:31:28;;;;;;;;;6.00;6.00;;;;;48.00;20.59;100097.88;5037774;28;45295;-78
2023/07/29 09:34:03;;;;;;;;;6.00;6.00;;;;;48.53;20.97;100097.09;5036547;28;45387;-76
2023/07/29 09:36:32;;;;;;;;;6.33;6.33;;;;;48.98;20.53;100094.47;5036186;28;46183;-77
2023/07/29 09:38:58;;;;;;;;;5.67;5.67;;;;;48.66;20.87;100096.25;5036966;28;45438;-76
2023/07/29 09:41:28;;;;;;;;;7.67;7.00;;;;;48.76;21.35;100093.88;5036743;28;45502;-78
2023/07/29 09:44:03;;;;;;;;;6.00;6.00;;;;;49.17;20.44;100098.31;5035156;28;45721;-77
2023/07/29 09:46:37;;;;;;;;;7.00;6.00;;;;;49.10;20.41;100102.16;5034392;28;46411;-78
2023/07/29 09:49:04;;;;;;;;;6.67;6.67;;;;;48.98;21.04;100093.63;5033914;28;45553;-78
2023/07/29 09:51:30;;;;;;;;;5.00;5.00;;;;;49.02;20.18;100094.94;5034607;28;45847;-77
2023/07/29 09:53:55;;;;;;;;;6.00;5.33;;;;;48.91;20.89;100096.44;5036435;28;45428;-79
2023/07/29 09:56:26;;;;;;;;;6.00;6.00;;;;;48.03;21.11;100096.59;5035890;28;45476;-78
2023/07/29 09:58:52;;;;;;;;;5.33;5.33;;;;;47.70;21.78;100088.22;5037172;28;45461;-78
2023/07/29 10:01:18;;;;;;;;;7.33;7.33;;;;;48.32;21.78;100095.38;5037103;28;45236;-77
2023/07/29 10:03:45;;;;;;;;;6.67;5.33;;;;;48.07;21.02;100094.25;5036565;28;45509;-77
2023/07/29 10:06:12;;;;;;;;;6.67;6.67;;;;;47.44;21.99;100094.44;5034491;28;46803;-78
2023/07/29 10:08:39;;;;;;;;;6.67;6.67;;;;;47.53;21.60;100085.75;5035839;28;45332;-76
2023/07/29 10:11:07;;;;;;;;;6.00;6.00;;;;;47.46;21.95;100089.59;5034704;28;45526;-77
2023/07/29 10:13:33;;;;;;;;;7.00;6.33;;;;;46.92;21.91;100089.28;5036634;28;45662;-79
2023/07/29 10:16:03;;;;;;;;;9.67;8.67;;;;;46.46;22.17;100088.91;5036224;28;46205;-79
2023/07/29 10:18:29;;;;;;;;;9.00;7.00;;;;;46.83;22.22;100094.09;5036586;28;45460;-79
2023/07/29 10:20:58;;;;;;;;;8.00;7.67;;;;;46.41;23.09;100093.09;5034371;28;45477;-78
2023/07/29 10:23:27;;;;;;;;;4.33;4.00;;;;;45.63;23.50;100092.06;5035843;28;45473;-77
2023/07/29 10:26:05;;;;;;;;;9.00;8.33;;;;;45.49;23.03;100098.47;5033648;28;46276;-77
2023/07/29 10:28:32;;;;;;;;;9.00;9.00;;;;;45.49;23.05;100099.31;5051721;28;45564;-78
2023/07/29 10:30:59;;;;;;;;;8.00;8.00;;;;;45.64;23.38;100091.88;5037044;28;45586;-78
2023/07/29 10:33:25;;;;;;;;;8.33;8.33;;;;;45.20;23.43;100089.13;5035895;28;45374;-78
2023/07/29 10:35:54;;;;;;;;;8.00;7.00;;;;;44.88;23.88;100090.38;5036461;28;46632;-78
2023/07/29 10:38:24;;;;;;;;;7.00;7.00;;;;;44.58;24.34;100085.66;5036725;28;45489;-77
2023/07/29 10:40:55;;;;;;;;;8.00;8.00;;;;;44.23;25.08;100092.66;5036691;28;45330;-76
2023/07/29 10:43:31;;;;;;;;;12.33;11.67;;;;;44.47;25.03;100095.25;5034884;28;45718;-77
2023/07/29 10:45:58;;;;;;;;;9.00;9.00;;;;;44.34;25.01;100088.63;5034946;28;46360;-75
2023/07/29 10:48:32;;;;;;;;;7.00;7.00;;;;;43.59;26.12;100090.09;5034271;28;45479;-77
2023/07/29 10:51:31;;;;;;;;;7.67;7.00;;;;;44.01;25.51;100094.34;5036506;28;45264;-74
2023/07/29 10:54:04;;;;;;;;;6.67;6.00;;;;;43.83;25.93;100095.50;5036735;28;45301;-74
2023/07/29 10:56:35;;;;;;;;;6.33;6.33;;;;;44.11;25.51;100086.72;5036361;28;46145;-77
2023/07/29 10:59:20;;;;;;;;;7.00;7.00;;;;;44.75;25.21;100096.50;5036824;28;45474;-75
2023/07/29 11:01:58;;;;;;;;;10.00;9.50;;;;;44.88;25.18;100080.22;5022414;28;45215;-75
2023/07/29 11:04:26;;;;;;;;;9.00;8.33;;;;;44.24;26.08;100091.63;5036828;28;45315;-75
2023/07/29 11:07:15;;;;;;;;;6.33;6.00;;;;;43.63;26.28;100092.31;5035043;28;47831;-76
2023/07/29 11:09:52;;;;;;;;;9.33;7.67;;;;;43.52;26.36;100083.63;5025690;28;45280;-75
2023/07/29 11:12:37;;;;;;;;;9.67;8.67;;;;;43.53;26.38;100091.69;5036491;28;45481;-75
2023/07/29 11:15:10;;;;;;;;;7.33;7.00;;;;;43.44;25.64;100095.53;5036600;28;45472;-74
2023/07/29 11:17:39;;;;;;;;;7.00;7.00;;;;;43.26;26.49;100101.25;5036272;28;46203;-75
2023/07/29 11:20:07;;;;;;;;;8.00;8.00;;;;;43.31;25.90;100104.31;5036344;28;45547;-76
2023/07/29 11:22:33;;;;;;;;;10.00;9.00;;;;;43.18;26.74;100104.03;5036362;28;45428;-76
2023/07/29 11:24:59;;;;;;;;;7.67;7.00;;;;;42.70;26.29;100071.81;5035128;28;45590;-77
2023/07/29 11:27:24;;;;;;;;;7.67;7.33;;;;;42.08;26.23;100101.66;5035974;28;45354;-76
2023/07/29 11:29:50;;;;;;;;;6.33;6.00;;;;;41.29;27.28;100096.41;5034300;28;45504;-78
2023/07/29 11:32:16;;;;;;;;;7.33;7.33;;;;;40.08;29.22;100100.78;5035650;28;45586;-75
2023/07/29 11:34:42;;;;;;;;;7.00;7.00;;;;;39.52;29.38;100103.56;5036337;28;45577;-78